Time;durP1;ratioP1;P1;durP2;ratioP2;P2;SDS_P1;SDS_P2;PMS_P1;PMS_P2;Temp;Humidity;BMP_temperature;BMP_pressure;BME280_temperature;BME280_humidity;BME280_pressure;Samples;Min_cycle;Max_cycle;Signal;HPM_P1;HPM_P2
2023/09/29 00:01:12;;;;;;;7.03;3.70;;;;;;;17.34;100.00;101404.75;10452393;28;20033;-66
2023/09/29 00:06:13;;;;;;;19.38;3.95;;;;;;;17.37;100.00;101387.03;10454037;28;20036;-67
2023/09/29 00:11:14;;;;;;;24.60;4.95;;;;;;;17.37;100.00;101395.25;10442538;28;20029;-67
2023/09/29 00:16:14;;;;;;;8.15;4.78;;;;;;;17.39;100.00;101385.75;10442506;28;20465;-68
2023/09/29 00:21:15;;;;;;;9.77;5.28;;;;;;;17.36;100.00;101380.72;10460131;28;20041;-67
2023/09/29 00:26:15;;;;;;;9.07;4.43;;;;;;;17.35;100.00;101375.47;10459446;28;20464;-68
2023/09/29 00:31:15;;;;;;;10.50;4.53;;;;;;;17.38;100.00;101375.81;10442482;28;20029;-67
2023/09/29 00:36:16;;;;;;;12.85;4.30;;;;;;;17.41;100.00;101377.28;10459428;28;20132;-67
2023/09/29 00:41:17;;;;;;;9.35;4.68;;;;;;;17.44;100.00;101369.44;10460665;28;20428;-68
2023/09/29 00:46:19;;;;;;;12.45;4.30;;;;;;;17.46;100.00;101376.59;10459584;28;20052;-67
2023/09/29 00:51:21;;;;;;;14.02;4.63;;;;;;;17.47;100.00;101370.88;10441699;28;20032;-67
2023/09/29 00:56:21;;;;;;;16.67;4.82;;;;;;;17.38;100.00;101356.66;10441624;28;20037;-68
2023/09/29 01:01:23;;;;;;;12.57;4.07;;;;;;;17.26;100.00;101361.28;10441058;28;20362;-67
2023/09/29 01:06:23;;;;;;;9.85;4.40;;;;;;;17.15;100.00;101360.13;10442410;28;20033;-68
2023/09/29 01:11:24;;;;;;;13.82;4.55;;;;;;;17.08;100.00;101359.38;10440116;28;20396;-66
2023/09/29 01:16:24;;;;;;;8.63;4.43;;;;;;;17.11;100.00;101349.88;10458030;28;20049;-67
2023/09/29 01:21:28;;;;;;;13.00;5.63;;;;;;;17.04;100.00;101325.34;10457629;28;20060;-68
2023/09/29 01:26:28;;;;;;;14.45;4.93;;;;;;;17.03;100.00;101317.34;10424339;28;20044;-66
2023/09/29 01:31:29;;;;;;;18.05;5.57;;;;;;;17.05;100.00;101309.75;10458231;28;20040;-67
2023/09/29 01:36:30;;;;;;;15.10;5.55;;;;;;;17.14;100.00;101319.34;10412769;28;20061;-67
2023/09/29 01:41:31;;;;;;;18.73;4.35;;;;;;;17.19;100.00;101313.97;10416271;28;20559;-67
2023/09/29 01:46:32;;;;;;;15.85;4.68;;;;;;;17.24;100.00;101322.34;10415850;28;20152;-66
2023/09/29 01:51:32;;;;;;;8.10;3.78;;;;;;;17.42;100.00;101341.47;10414569;28;20037;-68
2023/09/29 01:56:32;;;;;;;12.75;5.55;;;;;;;17.47;100.00;101326.25;10413673;28;20481;-67
2023/09/29 02:01:37;;;;;;;10.40;4.53;;;;;;;17.43;100.00;101313.00;10415115;28;20056;-68
2023/09/29 02:06:40;;;;;;;8.88;4.13;;;;;;;17.43;100.00;101291.09;10415833;28;20490;-68
2023/09/29 02:11:42;;;;;;;8.30;3.75;;;;;;;17.41;100.00;101279.53;10414500;28;20115;-67
2023/09/29 02:16:42;;;;;;;15.43;3.17;;;;;;;17.41;100.00;101274.06;10414385;28;20315;-67
2023/09/29 02:21:43;;;;;;;6.95;4.15;;;;;;;17.41;100.00;101279.53;10415551;28;20045;-66
2023/09/29 02:26:44;;;;;;;7.90;4.72;;;;;;;17.48;100.00;101284.09;10413071;28;20065;-67
2023/09/29 02:31:44;;;;;;;18.13;4.25;;;;;;;17.24;100.00;101275.81;10413959;28;20044;-66
2023/09/29 02:36:45;;;;;;;11.50;4.28;;;;;;;16.78;100.00;101269.06;10442374;28;20148;-66
2023/09/29 02:41:45;;;;;;;10.80;4.32;;;;;;;16.42;100.00;101262.50;10454199;28;20086;-64
2023/09/29 02:46:46;;;;;;;13.38;5.50;;;;;;;16.25;100.00;101242.31;10436926;28;20461;-65
2023/09/29 02:51:46;;;;;;;11.75;3.97;;;;;;;16.21;100.00;101239.22;10454381;28;20060;-66
2023/09/29 02:56:46;;;;;;;10.68;4.93;;;;;;;16.26;100.00;101233.88;10436205;28;20437;-66
2023/09/29 03:01:47;;;;;;;12.07;5.72;;;;;;;16.36;100.00;101222.41;10454281;28;20033;-66
2023/09/29 03:06:47;;;;;;;14.48;5.80;;;;;;;16.43;100.00;101215.00;10419815;28;20033;-65
2023/09/29 03:11:49;;;;;;;9.77;4.30;;;;;;;16.46;100.00;101217.28;10454712;28;20033;-66
2023/09/29 03:16:49;;;;;;;12.27;4.50;;;;;;;16.51;100.00;101216.56;10454451;28;20047;-66
2023/09/29 03:21:50;;;;;;;12.85;4.25;;;;;;;16.50;100.00;101213.00;10455036;28;20037;-66
2023/09/29 03:26:50;;;;;;;7.97;4.00;;;;;;;16.49;100.00;101203.13;10419169;28;20500;-64
2023/09/29 03:31:53;;;;;;;8.35;3.53;;;;;;;16.57;100.00;101198.44;10454467;28;20033;-66
2023/09/29 03:36:53;;;;;;;12.20;3.60;;;;;;;16.60;100.00;101190.59;10419191;28;20132;-66
2023/09/29 03:41:55;;;;;;;15.10;4.53;;;;;;;16.59;100.00;101193.53;10456820;28;20036;-67
2023/09/29 03:46:56;;;;;;;13.63;4.68;;;;;;;16.66;100.00;101188.84;10461829;28;20041;-67
2023/09/29 03:51:56;;;;;;;11.00;4.07;;;;;;;16.70;100.00;101179.09;10460350;28;20080;-66
2023/09/29 03:56:57;;;;;;;13.63;5.07;;;;;;;16.79;100.00;101177.75;10460805;28;20048;-65
2023/09/29 04:01:58;;;;;;;18.17;4.07;;;;;;;16.92;100.00;101182.19;10444131;28;20033;-67
2023/09/29 04:06:59;;;;;;;11.93;4.93;;;;;;;17.04;100.00;101184.94;10460938;28;20538;-67
2023/09/29 04:11:59;;;;;;;13.80;4.05;;;;;;;17.21;100.00;101175.00;10459286;28;20029;-66
2023/09/29 04:17:00;;;;;;;12.52;5.25;;;;;;;17.38;100.00;101175.97;10460890;28;20032;-66
2023/09/29 04:22:00;;;;;;;8.93;4.15;;;;;;;17.44;100.00;101182.44;10442438;28;20037;-67
2023/09/29 04:27:01;;;;;;;5.53;3.95;;;;;;;17.55;100.00;101175.28;10459840;28;20113;-67
2023/09/29 04:32:01;;;;;;;16.52;5.07;;;;;;;17.57;100.00;101182.19;10460168;28;20048;-67
2023/09/29 04:37:02;;;;;;;7.72;3.65;;;;;;;17.61;100.00;101174.34;10441217;28;20052;-67
2023/09/29 04:42:05;;;;;;;8.32;3.15;;;;;;;17.69;100.00;101171.25;10441054;28;20098;-67
2023/09/29 04:47:06;;;;;;;9.95;3.95;;;;;;;17.77;100.00;101157.25;10459297;28;20162;-67
2023/09/29 04:52:07;;;;;;;12.77;3.33;;;;;;;17.75;100.00;101148.38;10440480;28;20036;-68
2023/09/29 04:57:07;;;;;;;9.35;3.28;;;;;;;17.93;100.00;101158.38;10458491;28;20480;-66
2023/09/29 05:02:07;;;;;;;9.50;3.20;;;;;;;18.12;100.00;101140.75;10458372;28;20041;-67
2023/09/29 05:07:08;;;;;;;9.20;3.65;;;;;;;18.31;100.00;101146.91;10424051;28;20115;-66
2023/09/29 05:12:08;;;;;;;15.48;3.60;;;;;;;18.39;100.00;101153.91;10458071;28;20033;-66
2023/09/29 05:17:09;;;;;;;6.45;3.50;;;;;;;18.48;100.00;101149.69;10457927;28;20051;-66
2023/09/29 05:22:09;;;;;;;5.68;3.58;;;;;;;18.54;100.00;101165.19;10456707;28;20048;-65
2023/09/29 05:27:09;;;;;;;5.28;3.75;;;;;;;18.59;100.00;101158.94;10457364;28;20052;-67
2023/09/29 05:32:10;;;;;;;9.68;4.00;;;;;;;18.64;100.00;101161.81;10456050;28;20072;-67
2023/09/29 05:37:10;;;;;;;10.00;3.42;;;;;;;18.66;100.00;101153.31;10457565;28;20540;-68
2023/09/29 05:42:12;;;;;;;10.43;4.30;;;;;;;18.65;100.00;101147.00;10439832;28;20029;-67
2023/09/29 05:47:12;;;;;;;10.68;3.00;;;;;;;18.68;100.00;101157.47;10472142;28;20060;-66
2023/09/29 05:52:13;;;;;;;8.95;2.78;;;;;;;18.78;100.00;101160.44;10457588;28;20461;-68
2023/09/29 05:57:13;;;;;;;9.80;4.60;;;;;;;18.82;100.00;101160.78;10439965;28;20067;-68
2023/09/29 06:02:14;;;;;;;8.48;3.15;;;;;;;18.89;100.00;101157.88;10457284;28;20036;-68
2023/09/29 06:07:14;;;;;;;12.98;3.38;;;;;;;19.00;100.00;101162.50;10456511;28;20064;-67
2023/09/29 06:12:14;;;;;;;11.35;3.95;;;;;;;19.05;100.00;101179.06;10456455;28;20080;-66
2023/09/29 06:17:15;;;;;;;18.45;3.33;;;;;;;19.13;100.00;101175.06;10455250;28;20060;-68
2023/09/29 06:22:16;;;;;;;6.78;2.78;;;;;;;19.18;100.00;101188.91;10454722;28;20036;-67
2023/09/29 06:27:16;;;;;;;9.35;3.35;;;;;;;19.23;100.00;101200.78;10436956;28;20461;-69
2023/09/29 06:32:16;;;;;;;2.58;2.38;;;;;;;19.17;100.00;101181.72;10436297;28;20500;-68
2023/09/29 06:37:18;;;;;;;4.43;4.03;;;;;;;19.14;100.00;101193.19;10435848;28;20061;-68
2023/09/29 06:42:18;;;;;;;6.25;4.10;;;;;;;19.12;100.00;101193.47;10455549;28;20068;-67
2023/09/29 06:47:19;;;;;;;11.73;3.85;;;;;;;19.14;100.00;101195.94;10454966;28;20048;-68
2023/09/29 06:52:19;;;;;;;10.18;3.75;;;;;;;19.20;100.00;101184.81;10436699;28;20102;-68
2023/09/29 06:57:20;;;;;;;3.05;2.72;;;;;;;19.18;100.00;101189.72;10454078;28;20044;-67
2023/09/29 07:02:20;;;;;;;6.30;3.85;;;;;;;19.30;100.00;101208.84;10454661;28;20380;-66
2023/09/29 07:07:21;;;;;;;3.45;3.25;;;;;;;19.24;100.00;101201.59;10452644;28;20174;-67
2023/09/29 07:12:21;;;;;;;5.60;2.85;;;;;;;19.10;100.00;101201.09;10453713;28;20159;-67
2023/09/29 07:17:22;;;;;;;4.63;3.00;;;;;;;19.08;100.00;101214.25;10452889;28;20041;-67
2023/09/29 07:22:22;;;;;;;4.47;2.90;;;;;;;19.07;100.00;101218.06;10453593;28;20057;-69
2023/09/29 07:27:23;;;;;;;4.93;3.33;;;;;;;19.07;100.00;101219.97;10454646;28;20041;-67
2023/09/29 07:32:25;;;;;;;5.38;3.60;;;;;;;19.04;100.00;101227.63;10453716;28;20059;-67
2023/09/29 07:37:26;;;;;;;7.25;2.92;;;;;;;19.03;100.00;101219.63;10435621;28;20175;-67
2023/09/29 07:42:26;;;;;;;4.18;3.05;;;;;;;19.17;100.00;101215.50;10451435;28;20037;-67
2023/09/29 07:47:27;;;;;;;4.80;3.97;;;;;;;19.81;100.00;101214.38;10453170;28;20043;-67
2023/09/29 07:52:28;;;;;;;5.55;3.83;;;;;;;20.08;100.00;101226.34;10452872;28;20159;-67
2023/09/29 07:57:28;;;;;;;6.72;3.65;;;;;;;19.96;100.00;101236.63;10435137;28;20033;-67
2023/09/29 08:02:28;;;;;;;10.60;4.38;;;;;;;19.94;100.00;101236.88;10452772;28;20060;-67
2023/09/29 08:07:29;;;;;;;10.98;2.97;;;;;;;20.52;100.00;101236.63;10452944;28;20040;-67
2023/09/29 08:12:29;;;;;;;3.92;2.65;;;;;;;20.93;100.00;101248.94;10418419;28;20025;-68
2023/09/29 08:17:30;;;;;;;2.97;2.60;;;;;;;21.02;100.00;101252.88;10451093;28;20465;-67
2023/09/29 08:22:30;;;;;;;6.97;2.55;;;;;;;21.27;100.00;101254.22;10434168;28;20550;-67
2023/09/29 08:27:30;;;;;;;4.75;3.78;;;;;;;21.42;100.00;101265.44;10455039;28;20043;-68
2023/09/29 08:32:31;;;;;;;5.95;2.97;;;;;;;21.31;100.00;101266.38;10458451;28;20427;-67
2023/09/29 08:37:31;;;;;;;3.22;2.40;;;;;;;21.08;100.00;101267.53;10459058;28;20057;-67
2023/09/29 08:42:36;;;;;;;4.55;3.05;;;;;;;20.94;100.00;101278.13;10440875;28;20099;-67
2023/09/29 08:47:37;;;;;;;6.30;3.08;;;;;;;20.79;100.00;101280.69;10425956;28;20037;-67
2023/09/29 08:52:38;;;;;;;3.40;2.78;;;;;;;20.50;100.00;101288.25;10460504;28;20089;-68
2023/09/29 08:57:42;;;;;;;4.68;3.17;;;;;;;20.08;100.00;101297.84;10440975;28;20086;-69
2023/09/29 09:02:45;;;;;;;3.63;3.10;;;;;;;19.97;100.00;101296.84;10441517;28;20112;-68
2023/09/29 09:07:46;;;;;;;2.80;2.60;;;;;;;20.18;100.00;101294.41;10441132;28;20480;-67
2023/09/29 09:12:46;;;;;;;4.85;4.03;;;;;;;20.23;100.00;101297.25;10441029;28;20077;-66
2023/09/29 09:17:46;;;;;;;3.35;3.00;;;;;;;20.19;100.00;101298.81;10458950;28;20033;-68
2023/09/29 09:22:57;;;;;;;2.75;2.55;;;;;;;20.03;100.00;101300.50;10424696;28;20025;-67
2023/09/29 09:27:58;;;;;;;4.95;2.15;;;;;;;19.91;100.00;101306.09;10457335;28;20033;-68
2023/09/29 09:32:59;;;;;;;2.20;2.10;;;;;;;19.82;100.00;101315.00;10439850;28;20374;-69
2023/09/29 09:38:01;;;;;;;5.70;3.03;;;;;;;20.14;100.00;101321.56;10439337;28;20053;-67
2023/09/29 09:43:06;;;;;;;6.22;3.45;;;;;;;20.05;100.00;101331.31;10457020;28;20371;-67
2023/09/29 09:48:07;;;;;;;2.58;2.45;;;;;;;19.61;100.00;101331.09;10456613;28;20041;-66
2023/09/29 09:53:09;;;;;;;2.33;2.08;;;;;;;19.23;100.00;101349.03;10438718;28;20449;-66
2023/09/29 09:58:12;;;;;;;3.63;3.33;;;;;;;19.01;100.00;101367.25;10471535;28;20036;-65
2023/09/29 10:03:16;;;;;;;4.00;2.72;;;;;;;19.05;100.00;101385.75;10422454;28;20373;-64
2023/09/29 10:08:30;;;;;;;1.65;1.55;;;;;;;19.05;100.00;101407.72;10438420;28;20108;-67
2023/09/29 10:13:34;;;;;;;14.95;2.75;;;;;;;18.74;100.00;101419.91;10456069;28;20396;-65
2023/09/29 10:18:35;;;;;;;3.55;1.67;;;;;;;18.50;100.00;101434.66;10437382;28;20037;-64
2023/09/29 10:23:45;;;;;;;3.85;2.83;;;;;;;18.46;100.00;101452.66;10454808;28;20041;-66
2023/09/29 10:28:46;;;;;;;1.75;1.65;;;;;;;18.63;100.00;101463.78;10456388;28;20041;-65
2023/09/29 10:33:53;;;;;;;4.20;2.05;;;;;;;18.55;100.00;101470.44;10437328;28;20044;-64
2023/09/29 10:38:54;;;;;;;11.15;2.55;;;;;;;18.48;100.00;101481.53;10421872;28;20052;-64
2023/09/29 10:44:01;;;;;;;3.92;2.70;;;;;;;18.67;100.00;101487.75;10455123;28;20037;-65
2023/09/29 10:49:01;;;;;;;;;;;;;;;18.52;100.00;101490.97;10438175;28;20036;-66
2023/09/29 10:54:02;;;;;;;4.57;2.05;;;;;;;18.57;100.00;101512.22;10435697;28;19917;-66
2023/09/29 10:59:08;;;;;;;3.97;2.05;;;;;;;18.73;100.00;101516.16;10420291;28;20448;-66
2023/09/29 11:04:09;;;;;;;2.78;2.03;;;;;;;18.75;100.00;101536.81;10436380;28;20477;-67
2023/09/29 11:09:14;;;;;;;8.50;2.22;;;;;;;18.72;100.00;101545.53;10436256;28;20093;-65
2023/09/29 11:14:14;;;;;;;11.07;2.60;;;;;;;18.84;100.00;101556.53;10454352;28;20033;-65
2023/09/29 11:19:15;;;;;;;2.47;1.83;;;;;;;18.75;100.00;101575.22;10453765;28;20131;-65
2023/09/29 11:24:18;;;;;;;1.92;1.45;;;;;;;18.46;100.00;101587.06;10453635;28;20048;-66
2023/09/29 11:29:27;;;;;;;3.78;1.95;;;;;;;18.85;100.00;101601.25;10453579;28;20455;-64
2023/09/29 11:34:29;;;;;;;5.18;2.15;;;;;;;18.85;100.00;101614.97;10453324;28;20049;-65
2023/09/29 11:39:30;;;;;;;2.22;2.03;;;;;;;19.77;100.00;101620.78;10453072;28;20044;-65
2023/09/29 11:44:30;;;;;;;1.80;1.70;;;;;;;20.66;100.00;101626.72;10453097;28;20380;-67
2023/09/29 11:49:31;;;;;;;8.05;1.77;;;;;;;20.26;100.00;101637.78;10419965;28;20108;-66
2023/09/29 11:54:31;;;;;;;3.70;2.45;;;;;;;19.81;100.00;101652.19;10454192;28;20106;-66
2023/09/29 11:59:32;;;;;;;12.20;3.72;;;;;;;19.74;100.00;101665.22;10452964;28;20496;-65
2023/09/29 12:04:32;;;;;;;9.75;4.18;;;;;;;19.50;100.00;101681.69;10439338;28;20086;-67
2023/09/29 12:09:32;;;;;;;13.70;4.00;;;;;;;19.46;100.00;101698.88;10461949;28;20083;-66
2023/09/29 12:14:34;;;;;;;15.52;3.65;;;;;;;19.25;100.00;101711.28;10460372;28;20473;-67
2023/09/29 12:19:34;;;;;;;9.48;3.42;;;;;;;19.42;100.00;101705.91;10442097;28;20377;-66
2023/09/29 12:24:35;;;;;;;17.95;5.20;;;;;;;20.39;100.00;101721.94;10460992;28;20040;-66
2023/09/29 12:29:36;;;;;;;9.60;4.60;;;;;;;20.59;100.00;101735.31;10459271;28;20057;-68
2023/09/29 12:34:36;;;;;;;8.52;3.78;;;;;;;19.70;100.00;101752.81;10442088;28;20139;-66
2023/09/29 12:39:39;;;;;;;13.55;4.03;;;;;;;19.22;100.00;101755.69;10459631;28;20097;-67
2023/09/29 12:44:39;;;;;;;12.45;3.30;;;;;;;19.03;100.00;101779.59;10459794;28;20032;-66
2023/09/29 12:49:40;;;;;;;8.35;3.67;;;;;;;19.13;100.00;101790.03;10459381;28;20040;-67
2023/09/29 12:54:40;;;;;;;11.45;3.53;;;;;;;19.68;100.00;101798.09;10442225;28;20032;-67
2023/09/29 12:59:41;;;;;;;14.25;3.65;;;;;;;20.39;100.00;101799.78;10440831;28;20036;-67
2023/09/29 13:04:41;;;;;;;3.83;2.55;;;;;;;19.89;100.00;101821.44;10457223;28;20602;-66
2023/09/29 13:09:42;;;;;;;5.68;2.85;;;;;;;19.00;100.00;101826.72;10458495;28;20029;-67
2023/09/29 13:14:43;;;;;;;3.25;2.95;;;;;;;18.72;100.00;101833.59;10439637;28;20115;-67
2023/09/29 13:19:43;;;;;;;6.85;3.28;;;;;;;18.79;100.00;101842.63;10459197;28;20025;-67
2023/09/29 13:24:43;;;;;;;6.65;3.95;;;;;;;18.70;100.00;101856.84;10458521;28;20457;-66
2023/09/29 13:29:44;;;;;;;10.93;3.35;;;;;;;18.73;100.00;101872.84;10439796;28;20048;-68
2023/09/29 13:34:44;;;;;;;5.47;4.05;;;;;;;19.16;100.00;101861.78;10439857;28;20053;-68
2023/09/29 13:39:45;;;;;;;6.78;3.28;;;;;;;19.53;100.00;101869.94;10440051;28;20462;-67
2023/09/29 13:44:46;;;;;;;5.03;3.40;;;;;;;19.95;100.00;101886.47;10456426;28;20041;-68
2023/09/29 13:49:46;;;;;;;10.23;4.10;;;;;;;20.48;100.00;101887.44;10439513;28;20127;-68
2023/09/29 13:54:50;;;;;;;3.97;3.15;;;;;;;20.31;100.00;101898.34;10437989;28;20040;-66
2023/09/29 13:59:50;;;;;;;10.07;4.85;;;;;;;19.37;100.00;101909.03;10438664;28;20040;-66
2023/09/29 14:04:51;;;;;;;10.93;4.90;;;;;;;19.14;100.00;101918.81;10456687;28;20077;-67
2023/09/29 14:09:51;;;;;;;17.20;5.28;;;;;;;19.80;100.00;101908.06;10438939;28;20037;-67
2023/09/29 14:14:52;;;;;;;11.95;5.75;;;;;;;20.51;100.00;101923.63;10438681;28;20043;-67
2023/09/29 14:19:52;;;;;;;5.88;4.80;;;;;;;21.10;100.00;101938.19;10421501;28;20147;-68
2023/09/29 14:24:52;;;;;;;9.27;5.97;;;;;;;21.06;100.00;101941.66;10436720;28;20037;-68
2023/09/29 14:29:53;;;;;;;9.45;5.45;;;;;;;20.69;100.00;101947.44;10421729;28;20033;-67
2023/09/29 14:34:53;;;;;;;10.20;5.60;;;;;;;20.52;100.00;101966.59;10420725;28;20080;-67
2023/09/29 14:39:55;;;;;;;11.18;5.47;;;;;;;20.85;100.00;101971.47;10437475;28;20037;-67
2023/09/29 14:44:56;;;;;;;14.02;5.15;;;;;;;20.43;100.00;101973.47;10455269;28;20157;-67
2023/09/29 14:49:57;;;;;;;14.25;5.68;;;;;;;20.29;100.00;101985.75;10420493;28;20048;-67
2023/09/29 14:54:58;;;;;;;16.38;5.68;;;;;;;19.79;100.00;101999.84;10436491;28;20025;-68
2023/09/29 15:00:00;;;;;;;14.00;3.95;;;;;;;19.62;100.00;102005.09;10454679;28;20043;-67
2023/09/29 15:05:00;;;;;;;9.88;4.63;;;;;;;19.15;100.00;102011.13;10436465;28;20468;-68
2023/09/29 15:10:00;;;;;;;13.48;4.43;;;;;;;18.79;100.00;102031.97;10455477;28;20041;-69
2023/09/29 15:15:01;;;;;;;8.25;4.00;;;;;;;18.40;100.00;102035.81;10435805;28;20048;-68
2023/09/29 15:20:01;;;;;;;8.75;3.95;;;;;;;18.03;100.00;102037.56;10435384;28;20049;-68
2023/09/29 15:25:02;;;;;;;7.57;4.25;;;;;;;17.92;100.00;102040.97;10435567;28;20118;-68
2023/09/29 15:30:04;;;;;;;14.05;5.05;;;;;;;17.78;100.00;102052.00;10453480;28;20120;-68
2023/09/29 15:35:08;;;;;;;11.35;3.20;;;;;;;17.79;100.00;102058.31;10435338;28;20132;-67
2023/09/29 15:40:11;;;;;;;13.48;3.97;;;;;;;17.71;100.00;102075.81;10460655;28;20430;-67
2023/09/29 15:45:11;;;;;;;11.88;2.95;;;;;;;17.55;100.00;102079.88;10444449;28;20118;-68
2023/09/29 15:50:12;;;;;;;10.70;3.72;;;;;;;17.48;100.00;102083.66;10461852;28;20056;-69
2023/09/29 15:55:12;;;;;;;17.67;4.38;;;;;;;17.48;100.00;102083.66;10462107;28;20463;-68
2023/09/29 16:00:15;;;;;;;7.35;4.28;;;;;;;17.30;100.00;102098.88;10443935;28;20036;-68
2023/09/29 16:05:15;;;;;;;8.15;4.43;;;;;;;17.18;100.00;102101.41;10461380;28;20055;-67
2023/09/29 16:10:18;;;;;;;12.13;4.25;;;;;;;17.03;100.00;102092.59;10441947;28;20146;-67
2023/09/29 16:15:18;;;;;;;5.57;3.67;;;;;;;17.03;100.00;102103.53;10458265;28;20084;-69
2023/09/29 16:20:19;;;;;;;13.73;4.07;;;;;;;16.91;100.00;102105.22;10460554;28;20084;-69
2023/09/29 16:25:19;;;;;;;10.65;4.13;;;;;;;16.78;100.00;102111.50;10441782;28;20465;-67
2023/09/29 16:30:20;;;;;;;8.18;3.42;;;;;;;16.70;100.00;102103.50;10460786;28;20468;-67
2023/09/29 16:35:20;;;;;;;9.68;3.53;;;;;;;16.58;100.00;102121.56;10441796;28;20095;-68
2023/09/29 16:40:21;;;;;;;18.25;4.53;;;;;;;16.42;100.00;102126.38;10461751;28;20104;-67
2023/09/29 16:45:22;;;;;;;9.57;3.60;;;;;;;16.24;100.00;102131.56;10442964;28;20040;-68
2023/09/29 16:50:22;;;;;;;10.07;3.40;;;;;;;16.15;100.00;102144.59;10441602;28;20052;-67
2023/09/29 16:55:23;;;;;;;11.10;2.95;;;;;;;16.04;100.00;102162.38;10441461;28;20429;-65
2023/09/29 17:00:23;;;;;;;16.33;4.35;;;;;;;15.89;100.00;102169.91;10440926;28;20492;-67
2023/09/29 17:05:24;;;;;;;3.15;2.58;;;;;;;15.83;100.00;102172.59;10458088;28;20242;-66
2023/09/29 17:10:24;;;;;;;9.65;2.95;;;;;;;15.68;100.00;102186.34;10440701;28;20037;-69
2023/09/29 17:15:25;;;;;;;10.23;3.88;;;;;;;15.58;100.00;102198.44;10441810;28;20093;-68
2023/09/29 17:20:25;;;;;;;7.38;4.05;;;;;;;15.48;100.00;102202.56;10457755;28;20519;-68
2023/09/29 17:25:26;;;;;;;10.25;2.97;;;;;;;15.33;100.00;102206.22;10458664;28;20072;-67
2023/09/29 17:30:26;;;;;;;8.73;4.75;;;;;;;15.27;100.00;102219.81;10439890;28;20039;-68
2023/09/29 17:35:29;;;;;;;13.95;3.75;;;;;;;15.09;100.00;102232.06;10458135;28;20068;-67
2023/09/29 17:40:30;;;;;;;7.65;3.15;;;;;;;14.93;100.00;102231.44;10440409;28;20419;-67
2023/09/29 17:45:33;;;;;;;7.68;4.93;;;;;;;14.84;100.00;102234.31;10457524;28;20037;-68
2023/09/29 17:50:39;;;;;;;15.30;5.03;;;;;;;14.85;100.00;102243.31;10423303;28;20488;-68
2023/09/29 17:55:40;;;;;;;8.32;4.07;;;;;;;14.85;100.00;102249.63;10440719;28;20047;-68
2023/09/29 18:00:40;;;;;;;6.13;4.30;;;;;;;14.82;100.00;102262.81;10438495;28;20460;-69
2023/09/29 18:05:40;;;;;;;8.82;5.13;;;;;;;14.80;100.00;102273.88;10439154;28;20090;-68
2023/09/29 18:10:41;;;;;;;10.60;5.05;;;;;;;14.76;100.00;102279.94;10455950;28;20189;-68
2023/09/29 18:15:41;;;;;;;10.25;5.13;;;;;;;14.81;100.00;102280.22;10456910;28;20083;-69
2023/09/29 18:20:42;;;;;;;14.23;5.68;;;;;;;14.73;100.00;102283.88;10456857;28;20029;-67
2023/09/29 18:25:42;;;;;;;6.30;5.25;;;;;;;14.56;100.00;102288.72;10457478;28;20484;-68
2023/09/29 18:30:43;;;;;;;10.65;4.95;;;;;;;14.44;100.00;102284.75;10455196;28;20060;-68
2023/09/29 18:35:43;;;;;;;6.00;4.53;;;;;;;14.41;100.00;102291.41;10454057;28;20067;-68
2023/09/29 18:40:44;;;;;;;9.25;4.32;;;;;;;14.35;100.00;102296.78;10437607;28;20033;-66
2023/09/29 18:45:45;;;;;;;11.30;4.75;;;;;;;14.25;100.00;102299.78;10454497;28;20158;-67
2023/09/29 18:50:45;;;;;;;9.65;5.38;;;;;;;14.14;100.00;102313.88;10454950;28;20037;-68
2023/09/29 18:55:46;;;;;;;13.50;5.00;;;;;;;13.96;100.00;102306.91;10438549;28;20102;-68
2023/09/29 19:00:46;;;;;;;14.68;5.10;;;;;;;13.82;100.00;102315.06;10456911;28;20235;-67
2023/09/29 19:05:47;;;;;;;10.75;4.93;;;;;;;13.70;100.00;102320.09;10438010;28;20036;-67
2023/09/29 19:10:48;;;;;;;7.53;4.00;;;;;;;13.65;100.00;102327.94;10454777;28;20030;-67
2023/09/29 19:15:50;;;;;;;8.75;5.05;;;;;;;13.55;100.00;102330.06;10436397;28;20503;-68
2023/09/29 19:20:50;;;;;;;10.55;5.00;;;;;;;13.47;100.00;102339.16;10454443;28;20037;-67
2023/09/29 19:25:51;;;;;;;7.55;4.32;;;;;;;13.38;100.00;102338.38;10454597;28;20453;-66
2023/09/29 19:30:52;;;;;;;14.88;6.32;;;;;;;13.29;100.00;102347.59;10452822;28;20127;-67
2023/09/29 19:35:55;;;;;;;8.95;4.82;;;;;;;13.16;100.00;102369.91;10436309;28;20123;-66
2023/09/29 19:40:55;;;;;;;10.25;5.13;;;;;;;13.03;100.00;102370.50;10436161;28;20481;-67
2023/09/29 19:45:57;;;;;;;11.55;6.20;;;;;;;12.92;100.00;102378.19;10435926;28;20064;-66
2023/09/29 19:51:04;;;;;;;14.18;5.72;;;;;;;12.86;100.00;102371.63;10436327;28;20064;-68
2023/09/29 19:56:09;;;;;;;13.55;5.18;;;;;;;12.84;100.00;102380.97;10453953;28;20041;-67
2023/09/29 20:01:10;;;;;;;9.20;4.00;;;;;;;12.72;100.00;102388.66;10437600;28;20115;-66
2023/09/29 20:06:11;;;;;;;7.18;4.90;;;;;;;12.63;100.00;102385.09;10436396;28;20032;-67
2023/09/29 20:11:12;;;;;;;17.20;4.60;;;;;;;12.60;100.00;102393.59;10452070;28;20396;-69
2023/09/29 20:16:15;;;;;;;14.43;6.68;;;;;;;12.62;100.00;102398.88;10453419;28;20041;-68
2023/09/29 20:21:18;;;;;;;12.60;4.50;;;;;;;12.58;100.00;102382.06;10419363;28;20421;-67
2023/09/29 20:26:19;;;;;;;5.72;4.47;;;;;;;12.67;100.00;102375.59;10441245;28;20033;-68
2023/09/29 20:31:19;;;;;;;8.30;5.57;;;;;;;12.55;100.00;102383.25;10462011;28;20476;-67
2023/09/29 20:36:20;;;;;;;10.02;5.32;;;;;;;12.46;100.00;102386.19;10466868;28;20060;-68
2023/09/29 20:41:21;;;;;;;14.50;5.82;;;;;;;12.47;100.00;102380.56;10447615;28;20476;-69
2023/09/29 20:46:21;;;;;;;13.38;5.57;;;;;;;12.44;100.00;102385.50;10442413;28;20063;-67
2023/09/29 20:51:22;;;;;;;15.82;4.68;;;;;;;12.55;100.00;102377.00;10459322;28;20024;-68
2023/09/29 20:56:22;;;;;;;11.30;5.07;;;;;;;12.49;100.00;102381.25;10441382;28;20399;-67
2023/09/29 21:01:23;;;;;;;8.88;4.85;;;;;;;12.36;100.00;102386.38;10459721;28;20044;-67
2023/09/29 21:06:23;;;;;;;4.88;4.45;;;;;;;12.37;100.00;102393.50;10458009;28;20060;-69
2023/09/29 21:11:24;;;;;;;8.88;4.63;;;;;;;12.38;100.00;102389.78;10440017;28;20131;-68
2023/09/29 21:16:25;;;;;;;5.25;4.30;;;;;;;12.25;100.00;102398.47;10458135;28;20036;-68
2023/09/29 21:21:26;;;;;;;18.38;7.20;;;;;;;12.19;100.00;102404.56;10440393;28;20052;-67
2023/09/29 21:26:27;;;;;;;9.43;6.25;;;;;;;12.14;100.00;102406.94;10439543;28;20060;-69
2023/09/29 21:31:27;;;;;;;18.13;10.13;;;;;;;12.11;100.00;102412.72;10457764;28;20028;-69
2023/09/29 21:36:28;;;;;;;17.65;6.80;;;;;;;12.07;100.00;102416.78;10471406;28;20559;-69
2023/09/29 21:41:28;;;;;;;21.00;5.55;;;;;;;12.09;100.00;102423.75;10457261;28;20112;-67
2023/09/29 21:46:29;;;;;;;14.52;6.18;;;;;;;12.23;100.00;102410.50;10456718;28;20396;-67
2023/09/29 21:51:31;;;;;;;6.90;4.90;;;;;;;12.33;100.00;102409.28;10439760;28;20362;-67
2023/09/29 21:56:32;;;;;;;10.68;5.93;;;;;;;12.42;100.00;102393.00;10405222;28;20049;-68
2023/09/29 22:01:33;;;;;;;10.35;5.55;;;;;;;12.51;100.00;102386.53;10455964;28;20047;-68
2023/09/29 22:06:33;;;;;;;8.35;5.63;;;;;;;12.67;100.00;102393.78;10438023;28;20033;-67
2023/09/29 22:11:36;;;;;;;16.40;7.05;;;;;;;12.82;100.00;102392.00;10437438;28;20419;-68
2023/09/29 22:16:36;;;;;;;10.35;5.13;;;;;;;13.02;100.00;102393.28;10455331;28;20476;-67
2023/09/29 22:21:37;;;;;;;10.02;6.38;;;;;;;13.22;100.00;102407.28;10455390;28;20033;-68
2023/09/29 22:26:38;;;;;;;14.35;6.25;;;;;;;13.39;100.00;102399.91;10437801;28;20079;-68
2023/09/29 22:31:38;;;;;;;17.63;7.28;;;;;;;13.50;100.00;102401.38;10437824;28;20041;-68
2023/09/29 22:36:39;;;;;;;14.80;7.75;;;;;;;13.65;100.00;102413.16;10436613;28;20424;-68
2023/09/29 22:41:39;;;;;;;5.97;5.10;;;;;;;13.75;100.00;102410.19;10437278;28;20087;-69